Date,TemperatureHighF,TemperatureAvgF,TemperatureLowF,DewpointHighF,DewpointAvgF,DewpointLowF,HumidityHigh,HumidityAvg,HumidityLow,PressureMaxIn,PressureMinIn,WindSpeedMaxMPH,WindSpeedAvgMPH,GustSpeedMaxMPH,PrecipitationSumIn
2014-1-2,16,5,-7,-7,-16,-22,58,39,24,21.69,21.60,17,5,17,0.00
2014-1-3,18,4,-13,5,-11,-30,56,49,37,22.32,22.19,30,9,30,0.00
2014-1-4,32,23,12,26,10,-4,79,57,43,22.40,21.88,29,10,29,0.00
2014-1-5,12,0,-12,-4,-21,-33,48,35,24,21.93,21.78,23,10,23,0.00
2014-1-6,-8,-15,-21,-32,-38,-46,37,30,21,21.93,21.85,26,11,26,0.00
2014-1-7,8,-7,-18,-21,-28,-37,44,34,23,21.82,21.75,17,5,17,0.00
2014-1-8,16,-2,-13,-13,-23,-28,53,37,22,21.78,21.53,11,2,11,0.00
2014-1-9,20,2,-19,13,-15,-36,74,45,26,21.93,21.53,15,2,15,0.00
2014-1-10,32,27,20,30,24,1,91,86,74,22.54,21.84,12,3,12,0.07
2014-1-11,33,30,28,31,26,21,92,85,76,22.59,22.27,0,0,0,0.07
2014-1-12,42,34,24,30,25,19,84,70,52,22.52,22.26,24,4,24,0.02
2014-1-13,43,34,21,31,23,12,80,66,45,22.51,22.30,23,5,23,0.00
2014-1-14,31,24,14,28,18,6,89,79,68,22.09,22.08,22,7,24,0.00
2014-1-15,19,13,9,6,0,-3,72,57,40,22.40,21.94,23,7,23,0.00
2014-1-16,32,22,10,28,12,-5,84,65,50,22.62,22.30,24,9,24,0.00
2014-1-17,22,14,5,9,2,-7,69,58,50,22.31,22.06,17,7,17,0.00
2014-1-18,20,9,1,6,-2,-10,69,60,49,22.23,22.22,11,2,11,0.00
2014-1-19,40,28,10,24,16,3,75,61,47,22.56,22.22,19,7,19,0.01
2014-1-20,30,17,2,23,4,-15,76,57,38,22.38,21.75,26,9,26,0.00
2014-1-21,17,1,-9,-14,-20,-25,51,36,21,21.91,21.66,14,4,14,0.00
2014-1-22,12,3,-4,-5,-14,-24,60,44,30,22.14,21.82,25,8,25,0.00
2014-1-23,12,-1,-11,-14,-22,-29,47,36,22,21.82,21.47,24,8,24,0.00
2014-1-24,30,13,-11,25,-2,-28,85,52,34,22.62,21.63,34,10,34,0.00
2014-1-25,30,12,1,24,-12,-24,78,34,21,22.62,22.19,34,11,34,0.00
2014-1-26,19,8,2,5,-5,-17,64,55,37,22.67,22.18,30,9,30,0.00
2014-1-27,10,-6,-14,-12,-30,-38,52,30,21,22.35,21.66,27,11,27,0.00
2014-1-28,34,-6,-17,25,-27,-35,71,34,21,21.91,21.67,20,7,20,0.00
2014-1-29,25,10,-5,4,-12,-22,47,36,23,22.26,21.90,24,9,24,0.00
2014-1-30,30,24,11,23,11,-3,80,57,39,22.51,22.06,23,9,24,0.00
2014-1-31,14,4,-7,-3,-16,-22,54,39,23,22.07,21.85,15,4,15,0.00
2014-2-1,32,10,-7,14,-5,-20,58,50,38,22.07,21.88,14,2,14,0.00
2014-2-2,23,9,-7,-3,-10,-21,64,43,21,22.50,21.71,15,3,15,0.00
2014-2-3,26,7,-13,0,-12,-27,53,42,26,21.78,21.68,17,4,17,0.00
2014-2-4,24,13,4,3,-2,-8,62,51,39,21.77,21.59,12,3,12,0.00
2014-2-5,19,12,0,5,-3,-23,68,50,38,21.78,21.60,21,9,21,0.00
2014-2-6,13,1,-7,-13,-18,-21,56,42,24,21.77,21.61,20,7,20,0.00
2014-2-7,18,4,-6,-12,-17,-21,54,39,21,21.83,21.76,23,6,23,0.00
2014-2-8,18,3,-12,3,-10,-26,64,53,37,21.90,21.78,10,2,10,0.00
2014-2-9,24,9,-2,3,-9,-21,66,46,24,21.91,21.71,20,6,20,0.00
2014-2-10,16,2,-8,-16,-20,-25,48,35,21,21.72,21.57,15,5,15,0.00
2014-2-11,19,3,-14,-8,-18,-27,54,37,22,21.76,21.55,15,4,15,0.00
2014-2-12,24,9,-2,8,-5,-17,63,51,39,22.06,21.75,12,4,12,0.00
2014-2-13,28,17,-2,18,8,-14,76,65,57,22.54,22.05,22,7,22,0.00
2014-2-14,31,16,6,7,-1,-10,65,47,28,22.03,22.01,15,7,18,0.00
2014-2-15,23,9,-7,7,-6,-19,70,50,31,22.09,21.96,14,3,14,0.00
2014-2-16,42,19,11,11,3,-3,73,52,22,22.06,21.74,14,5,14,0.00
2014-2-17,25,20,13,20,13,1,82,75,59,22.29,21.78,26,5,26,0.00
2014-2-18,48,31,16,27,20,10,82,66,43,22.40,22.33,19,5,19,0.06
2014-2-19,50,38,26,24,20,15,71,49,27,22.14,22.12,14,5,21,0.00
2014-2-20,39,34,29,38,28,19,98,78,62,23.01,22.14,25,7,25,0.30
2014-2-21,34,22,16,30,9,2,84,57,41,22.96,22.30,37,18,37,0.08
2014-2-22,31,19,10,4,0,-3,55,43,28,22.29,21.96,26,10,26,0.00
2014-2-23,26,14,5,-2,-5,-9,54,42,26,21.96,21.84,23,10,23,0.00
2014-2-24,26,14,5,-3,-6,-10,54,41,25,21.86,21.78,61,9,61,0.00
2014-2-25,17,9,-1,-5,-13,-22,61,37,21,21.90,21.79,22,9,22,0.00
2014-2-26,15,5,-7,6,-16,-30,72,38,20,22.44,21.80,33,8,33,0.00
2014-2-27,12,0,-13,-10,-27,-35,56,26,19,22.34,21.85,31,8,31,0.00
2014-2-28,16,3,-17,8,-14,-38,71,45,31,22.07,21.85,19,3,19,0.00
2014-3-1,15,8,1,7,-8,-20,71,49,29,21.96,21.63,17,7,17,0.00
2014-3-2,15,2,-7,-18,-26,-33,36,25,19,21.64,21.53,20,7,20,0.00
2014-3-3,20,6,-13,-5,-21,-33,48,28,20,21.72,21.51,14,4,14,0.00
2014-3-4,25,16,9,4,0,-6,65,51,36,21.85,21.71,8,3,8,0.01
2014-3-5,28,15,-2,2,-4,-16,57,43,24,21.74,21.52,17,4,17,0.00
2014-3-6,31,14,-7,9,-2,-23,59,47,34,0.00,40.00,16,5,17,0.00
2014-3-7,46,31,17,28,18,6,70,60,46,22.20,21.94,18,6,18,0.00
2014-3-8,39,28,15,24,10,3,69,48,25,21.81,21.78,21,6,21,0.00
2014-3-9,46,30,13,29,15,3,69,56,39,22.31,21.81,25,7,25,0.00
2014-3-10,64,47,32,36,31,26,87,57,29,22.35,22.32,17,4,18,0.00
2014-3-11,47,42,34,37,30,-4,82,62,48,22.34,22.16,18,4,18,0.05
2014-3-12,34,26,13,25,8,-12,74,49,19,0.00,40.00,17,7,18,0.01
2014-3-13,44,27,9,34,14,-3,85,58,44,22.33,21.91,24,6,24,0.00
2014-3-14,52,42,35,35,30,20,84,61,42,22.52,22.18,27,10,27,0.00
2014-3-15,40,31,23,21,13,3,65,47,24,22.18,21.64,23,6,23,0.00
2014-3-16,31,18,7,11,-3,-12,59,40,22,21.86,21.55,18,6,18,0.00
2014-3-17,36,23,12,14,7,1,63,51,27,22.28,21.85,23,7,23,0.00
2014-3-18,49,34,21,30,24,14,81,66,45,22.26,22.21,17,5,18,0.00
2014-3-19,40,34,32,33,27,18,91,77,53,22.37,22.05,23,9,23,0.05
2014-3-20,49,36,25,24,21,16,76,55,33,22.06,21.97,19,5,19,0.00
2014-3-21,51,36,20,35,24,14,84,65,43,22.29,22.00,26,6,26,0.00
2014-3-22,37,29,17,27,12,-4,73,49,24,22.11,21.61,23,11,23,0.00
2014-3-23,32,20,10,0,-4,-9,55,36,20,21.66,21.55,18,7,18,0.00
2014-3-24,38,24,10,21,7,-3,81,50,25,21.99,21.64,25,6,25,0.00
2014-3-25,29,20,11,11,-2,-9,61,39,22,22.00,21.79,28,10,28,0.00
2014-3-26,36,24,8,19,6,-4,66,47,32,22.15,21.76,27,8,27,0.00
2014-3-27,40,38,36,37,29,18,97,74,46,22.56,22.15,23,8,23,0.34
2014-3-28,52,38,32,34,25,20,94,62,30,22.53,21.81,28,8,28,0.40
2014-3-29,55,39,30,27,23,17,81,56,23,21.83,21.71,13,3,13,0.00
2014-3-30,62,44,28,38,27,16,75,54,30,22.06,21.76,27,8,27,0.00
2014-3-31,68,53,41,42,38,34,81,59,37,22.45,22.02,40,12,40,0.00
2014-4-1,55,35,27,44,22,15,70,58,40,22.48,21.92,36,12,36,0.00
2014-4-2,55,37,23,26,19,14,81,52,23,21.92,21.80,12,4,12,0.00
2014-4-3,42,36,32,25,22,15,66,56,43,22.29,21.87,26,7,26,0.00
2014-4-4,36,34,32,32,28,24,93,81,66,22.50,22.01,31,9,31,0.26
2014-4-5,58,40,25,30,23,19,89,55,24,22.02,21.84,16,4,16,0.00
2014-4-6,63,46,30,37,31,22,76,56,34,22.12,21.91,23,6,23,0.00
2014-4-7,67,46,35,48,39,29,93,77,39,22.33,22.09,14,3,14,0.25
2014-4-8,62,48,36,40,32,21,91,59,23,22.32,22.04,25,7,25,0.11
2014-4-9,67,49,30,32,26,19,81,45,20,22.36,22.01,28,8,28,0.00
2014-4-10,68,56,37,39,26,12,56,34,14,22.43,22.05,28,9,28,0.00
2014-4-11,69,50,34,41,30,20,82,50,22,22.09,21.98,26,5,26,0.00
2014-4-12,44,42,39,43,40,35,99,92,74,22.33,21.98,27,4,27,0.98
2014-4-13,48,44,38,47,43,38,99,98,95,22.39,22.32,28,7,28,0.56
2014-4-14,38,31,23,38,26,15,99,83,64,21.98,21.96,26,8,30,0.64
2014-4-15,39,27,16,18,14,6,80,58,32,21.96,21.82,16,2,16,0.09
2014-4-16,50,38,25,32,25,16,72,59,45,21.98,21.77,36,10,36,0.00
2014-4-17,60,47,36,40,35,28,79,64,41,21.95,21.69,23,8,23,0.00
2014-4-18,62,45,32,33,26,20,86,54,22,21.71,21.61,16,4,16,0.00
2014-4-19,67,49,30,41,32,25,84,55,33,21.87,21.60,27,8,27,0.00
2014-4-20,63,57,52,59,48,40,98,73,49,22.04,21.98,15,4,18,0.15
2014-4-21,74,61,50,60,50,32,99,73,27,25.23,22.01,28,6,28,0.02
2014-4-22,60,48,38,34,28,22,72,49,26,21.90,21.88,20,10,29,0.00
2014-4-23,58,45,30,33,26,15,83,52,21,21.97,21.81,23,1,23,0.05
2014-4-24,48,41,34,44,39,31,99,93,75,22.31,21.89,15,3,15,0.52
2014-4-25,68,53,42,45,39,31,99,65,30,22.31,22.10,25,7,25,0.18
2014-4-26,58,45,33,35,32,29,83,62,38,22.11,21.89,19,7,19,0.00
2014-4-27,51,41,36,41,36,32,99,85,56,22.16,22.00,40,7,40,0.34
2014-4-28,51,44,41,44,40,36,99,86,59,22.31,22.11,25,8,25,0.72
2014-4-29,44,41,38,44,41,38,99,98,96,22.45,22.31,22,7,22,0.58
2014-4-30,50,45,42,50,43,38,99,92,71,22.29,22.28,17,5,17,0.09
2014-5-1,55,45,41,48,42,39,97,88,69,22.37,22.21,19,1,19,0.05
2014-5-2,54,47,44,46,42,38,98,84,60,22.35,22.21,14,5,14,0.08
2014-5-3,65,52,42,45,37,28,99,62,27,22.35,22.13,30,8,30,0.09
2014-5-4,68,53,40,36,27,18,76,41,16,22.12,21.91,17,6,17,0.00
2014-5-5,64,51,42,40,36,32,81,59,36,22.02,21.91,17,5,17,0.00
2014-5-6,68,51,34,41,37,33,99,62,32,22.07,21.92,23,6,23,0.08
2014-5-7,61,51,46,52,47,40,99,86,70,22.19,22.03,23,6,23,0.38
2014-5-8,81,64,48,66,56,48,99,78,53,22.33,22.16,22,5,22,0.00
2014-5-9,73,61,48,63,52,42,89,72,57,22.42,22.17,27,10,27,0.00
2014-5-10,79,67,47,50,38,22,84,40,14,22.17,22.06,17,5,17,0.00
2014-5-11,84,67,54,65,54,45,97,67,42,22.12,22.06,17,4,17,0.04
2014-5-12,80,68,60,70,64,60,99,90,67,22.28,22.09,18,5,18,0.69
2014-5-13,67,56,44,65,50,39,99,79,55,22.24,21.83,21,8,21,0.05
2014-5-14,65,52,40,41,34,26,94,55,26,21.94,21.76,21,6,21,0.00
2014-5-15,59,49,40,39,32,25,92,54,31,22.02,21.92,20,9,20,0.01
2014-5-16,60,45,31,34,28,22,82,53,29,21.98,21.91,18,4,18,0.00
2014-5-17,66,52,33,36,29,21,88,47,21,21.97,21.91,18,4,18,0.00
2014-5-18,78,62,44,39,34,27,70,40,18,21.92,21.86,22,6,22,0.00
2014-5-19,64,54,47,53,46,37,98,76,47,22.09,21.83,27,6,27,0.25
2014-5-20,89,70,53,64,58,49,93,68,38,22.20,22.09,14,2,14,0.00
2014-5-21,84,69,55,66,53,36,99,63,19,22.16,21.96,24,7,24,0.00
2014-5-22,77,63,50,50,46,42,91,58,31,21.96,21.82,21,6,21,0.00
2014-5-23,79,62,44,51,46,42,94,60,34,21.82,21.75,18,3,18,0.00
2014-5-24,84,64,45,56,45,37,99,58,22,21.87,21.74,17,3,17,0.00
2014-5-25,87,69,46,57,49,36,99,56,21,22.02,21.85,17,3,17,0.00
2014-5-26,89,75,63,70,64,34,94,71,44,22.10,21.99,29,4,29,0.02
2014-5-27,86,72,65,70,66,60,99,83,56,22.11,22.01,14,4,14,0.00
2014-5-28,82,66,55,60,51,43,93,61,38,22.02,21.86,15,3,15,0.01
2014-5-29,92,69,50,58,52,46,98,61,27,21.91,21.81,12,2,12,0.00
2014-5-30,91,71,50,62,54,47,99,61,24,21.87,21.77,18,3,18,0.00
2014-5-31,90,73,51,58,53,48,99,57,25,21.99,21.80,22,6,22,0.00
2014-6-1,85,71,64,73,66,56,99,86,53,22.15,21.94,27,6,27,0.73
2014-6-2,84,73,66,71,66,60,99,82,49,22.28,22.14,25,7,25,0.92
2014-6-3,82,70,60,60,53,48,85,58,32,22.23,22.02,29,8,29,0.00
2014-6-4,72,62,58,62,58,57,98,87,71,22.15,22.05,8,2,8,0.00
2014-6-5,84,68,53,64,55,50,99,67,36,22.06,22.05,14,3,14,0.00
2014-6-6,87,73,60,61,56,51,89,60,33,22.06,21.99,15,3,15,0.00
2014-6-7,84,68,57,65,60,56,99,81,42,22.11,21.99,21,4,21,0.05
2014-6-8,81,67,54,59,50,39,98,62,24,22.03,21.90,19,6,19,0.02
2014-6-9,83,65,49,60,53,42,99,69,34,22.03,21.90,13,2,13,0.00
2014-6-10,78,66,54,59,55,48,98,71,42,22.11,21.93,11,3,11,0.00
2014-6-11,83,68,58,58,55,51,95,64,38,22.22,22.10,16,5,16,0.00
2014-6-12,78,65,53,64,53,43,99,68,38,22.27,22.10,23,7,23,0.00
2014-6-13,79,64,52,47,40,28,81,46,17,22.12,21.97,21,8,21,0.00
2014-6-14,80,66,48,54,49,41,99,60,27,22.12,21.90,23,5,23,0.00
2014-6-15,87,72,61,66,56,47,85,59,41,22.31,22.06,34,8,34,0.00
2014-6-16,89,74,56,68,58,47,98,64,26,22.17,21.97,23,5,23,0.61
2014-6-17,91,76,64,71,66,62,99,76,43,22.29,22.08,21,4,21,0.81
2014-6-18,86,72,65,71,67,64,99,86,56,21.95,21.94,21,5,24,1.49
2014-6-19,77,70,64,68,66,63,99,87,72,21.98,21.84,16,5,16,0.01
2014-6-20,90,73,64,74,67,62,99,84,46,22.06,21.97,11,3,11,0.07
2014-6-21,86,69,63,76,67,62,99,94,61,22.12,21.99,13,4,13,0.18
2014-6-22,86,74,66,70,67,63,99,83,52,22.14,22.02,11,3,11,0.01
2014-6-23,91,76,67,71,67,64,99,78,42,22.18,22.11,12,2,12,0.00
2014-6-24,94,77,64,70,64,57,99,69,32,22.14,22.05,16,4,16,0.00
2014-6-25,76,68,63,66,64,62,98,88,69,22.13,21.92,12,3,12,0.00
2014-6-26,86,71,62,66,63,59,98,77,46,21.99,21.88,14,3,14,0.00
2014-6-27,87,75,62,71,67,60,98,77,54,22.09,21.89,23,6,23,0.11
2014-6-28,88,79,70,74,71,68,94,77,61,22.15,22.00,24,10,24,0.00
2014-6-29,88,75,66,72,68,62,99,81,45,22.19,22.09,28,7,28,0.20
2014-6-30,86,72,66,75,69,65,99,90,62,22.43,22.15,22,6,22,0.27
2014-7-1,82,71,62,67,63,60,99,79,53,22.32,22.23,19,7,20,0.00
2014-7-2,63,60,58,60,58,58,99,96,86,22.24,22.11,15,6,15,0.00
2014-7-3,34,34,34,34,34,34,0,0,100,0.00,40.00,0,-999,0,0.00
2014-7-7,69,49,43,61,47,42,99,94,74,22.38,22.17,6,3,0,4.12
2014-7-8,81,74,63,65,59,54,87,61,43,22.32,22.14,23,9,23,6.69
2014-7-9,79,69,57,61,54,47,99,64,36,22.13,21.91,22,6,22,0.00
2014-7-10,81,68,51,66,58,50,99,74,46,21.92,21.82,100,4,100,0.00
2014-7-11,77,69,60,64,61,56,99,77,51,21.92,21.82,21,6,21,0.00
2014-7-12,79,76,63,74,72,61,94,88,79,22.09,21.86,6,3,6,0.00
2014-7-14,74,62,53,55,52,48,98,71,47,22.14,22.09,17,7,17,0.00
2014-7-15,71,61,51,56,52,48,98,75,48,22.10,21.98,22,8,22,0.00
2014-7-16,80,62,47,57,50,44,99,70,30,21.99,21.93,11,2,11,0.00
2014-7-17,84,66,48,57,52,46,99,66,30,21.99,21.88,14,2,14,0.00
2014-7-18,82,68,51,63,58,51,99,73,42,21.93,21.83,17,4,17,0.00
2014-7-19,83,70,56,65,61,56,99,75,44,21.99,21.90,17,4,17,0.00
2014-7-20,85,72,58,67,64,57,99,77,51,22.03,21.96,17,5,17,0.00
2014-7-21,88,76,63,71,67,62,99,77,52,22.01,21.94,18,6,18,0.26
2014-7-22,97,81,70,77,71,62,93,72,47,22.10,21.89,21,8,21,0.26
2014-7-23,86,70,58,62,58,53,99,69,38,21.89,21.75,21,5,21,0.00
2014-7-24,86,68,53,61,55,49,98,68,34,22.00,21.78,12,3,12,0.00
2014-7-25,72,66,59,65,62,55,99,87,73,22.12,21.96,24,6,24,0.02
2014-7-26,87,74,63,76,68,62,99,84,63,22.20,22.09,27,3,27,0.02
2014-7-27,80,70,60,70,63,55,99,80,50,22.25,21.96,27,7,27,0.14
2014-7-28,78,66,53,57,54,48,98,68,41,21.96,21.84,19,7,19,0.00
2014-7-29,86,68,57,61,57,53,95,69,37,22.00,21.91,28,5,28,0.00
2014-7-30,84,68,57,63,57,46,99,74,29,21.99,21.91,13,4,13,0.00
2014-7-31,86,72,58,66,61,58,99,72,41,22.01,21.96,17,4,17,0.02
2014-8-1,89,66,56,71,61,56,99,85,41,21.91,21.86,18,2,19,0.61
2014-8-2,92,71,53,68,61,52,99,75,35,21.90,21.81,8,2,8,0.01
2014-8-3,68,67,66,66,65,64,94,93,91,21.87,21.87,0,0,2,0.00
2014-8-4,81,69,62,69,66,61,99,91,66,21.94,21.86,15,2,15,0.02
2014-8-5,89,72,62,66,62,59,99,75,41,21.93,21.86,10,2,10,0.00
2014-8-6,92,72,57,67,62,56,99,74,35,21.94,21.88,10,2,10,0.00
2014-8-7,87,71,58,64,58,53,99,69,34,21.93,21.84,14,2,14,0.00
2014-8-8,90,71,55,63,58,54,99,69,31,21.91,21.83,14,2,14,0.00
2014-8-9,90,70,56,65,59,55,99,72,38,21.90,21.82,14,2,14,0.00
2014-8-10,88,70,54,66,61,53,99,76,44,21.99,21.86,11,2,11,0.00
2014-8-11,86,70,62,69,63,59,98,82,45,22.17,21.97,21,5,21,0.08
2014-8-12,79,66,57,61,54,49,95,69,38,22.10,21.99,27,10,27,0.08
2014-8-13,85,70,57,64,56,50,88,63,33,22.02,21.89,18,5,18,0.00
2014-8-14,80,60,51,55,52,45,97,77,31,21.94,21.81,11,2,11,0.00
2014-8-15,86,68,48,66,57,47,99,74,43,22.08,21.91,13,3,13,0.00
2014-8-16,94,75,61,71,66,61,99,76,41,22.14,22.02,15,4,15,0.00
2014-8-17,86,69,61,64,61,56,93,76,45,22.02,21.91,13,4,13,0.00
2014-8-18,86,69,59,72,65,58,99,87,64,22.27,22.01,27,6,27,1.62
2014-8-19,83,70,62,69,64,6,99,84,10,22.33,22.19,20,4,21,1.94
2014-8-20,91,73,62,70,65,61,99,79,43,22.19,22.02,13,2,13,0.00
2014-8-21,80,72,66,74,70,65,99,94,78,22.09,22.00,18,4,18,0.70
2014-8-22,97,80,71,79,74,70,99,85,50,22.09,21.99,12,3,12,0.00
2014-8-23,80,75,72,77,74,70,99,95,87,22.04,21.96,11,2,11,1.48
2014-8-24,86,76,68,77,72,68,99,90,74,22.04,21.96,16,4,16,0.00
2014-8-25,89,76,68,76,72,68,99,89,60,22.04,21.92,14,4,14,0.21
2014-8-26,81,69,63,72,60,55,97,76,42,21.98,21.81,17,4,17,0.00
2014-8-27,86,70,60,65,59,55,98,71,38,21.87,21.83,8,2,9,0.00
2014-8-28,79,66,58,66,61,57,99,84,59,21.97,21.83,15,4,15,0.07
2014-8-29,88,73,60,75,68,54,99,87,63,22.19,21.97,19,5,19,0.09
2014-8-30,84,73,65,72,68,65,99,88,62,22.24,22.06,15,4,15,0.09
2014-8-31,86,73,62,71,67,62,99,83,54,22.22,22.05,17,4,17,0.00
2014-9-1,82,71,62,72,65,60,99,83,60,22.34,22.13,23,4,23,0.18
2014-9-2,87,71,56,66,59,55,99,71,41,22.14,22.05,17,4,17,0.18
2014-9-3,85,71,56,68,62,55,99,75,44,22.16,21.98,20,5,20,0.00
2014-9-4,86,76,70,75,70,67,95,84,64,22.19,22.07,30,8,30,0.00
2014-9-5,80,70,57,76,62,54,97,78,53,22.18,21.84,21,7,21,0.02
2014-9-6,82,64,51,56,52,45,99,71,30,21.86,21.80,17,4,17,0.00
2014-9-7,87,66,50,60,54,47,99,72,30,21.89,21.78,11,2,11,0.00
2014-9-8,77,64,51,61,55,50,99,77,46,22.02,21.86,22,4,22,0.00
2014-9-9,83,69,56,68,62,56,99,80,50,22.18,22.01,17,4,17,0.05
2014-9-10,77,63,47,72,60,40,99,91,79,22.50,22.01,30,8,59,0.13
2014-9-11,57,50,45,46,42,39,93,75,58,22.01,21.66,20,7,20,0.00
2014-9-12,50,45,42,45,43,40,99,92,73,21.68,21.57,9,3,9,0.09
2014-9-13,67,49,38,48,39,33,99,75,32,21.72,21.62,15,3,15,0.01
2014-9-14,71,55,42,52,46,41,99,74,43,21.89,21.69,20,6,20,0.00
2014-9-15,64,54,44,55,51,44,99,90,57,21.84,21.80,8,2,11,0.15
2014-9-16,75,54,38,52,43,38,99,73,32,21.93,21.78,11,2,11,0.01
2014-9-17,78,56,40,58,48,39,99,80,40,22.03,21.93,13,2,13,0.00
2014-9-18,69,54,48,55,50,48,99,89,57,21.95,21.78,10,3,10,0.00
2014-9-19,76,62,47,59,53,46,99,75,49,22.19,21.84,28,10,28,0.00
2014-9-20,82,68,59,68,63,57,99,83,53,22.28,22.14,27,5,27,0.15
2014-9-21,65,57,54,59,54,46,99,89,49,22.27,21.97,28,10,28,0.05
2014-9-22,76,63,39,53,48,39,99,63,42,21.81,21.72,15,5,15,0.00
2014-9-23,79,60,44,58,50,43,99,75,38,21.77,21.68,11,3,11,0.00
2014-9-24,71,65,46,57,54,46,99,70,56,21.75,21.66,10,5,10,0.00
2014-9-25,85,77,59,59,53,47,99,49,31,21.78,21.71,11,6,11,0.00
2014-9-26,83,79,72,58,56,54,61,46,38,21.78,21.71,11,6,11,0.00
2014-9-27,86,82,75,60,59,58,61,47,41,21.81,21.73,7,5,7,0.00
2014-9-28,83,80,77,61,60,60,57,52,45,21.84,21.81,4,4,4,0.00
2014-9-29,76,72,66,63,61,59,88,70,59,21.99,21.97,8,5,8,2.65
2014-10-1,68,63,53,57,55,50,88,76,65,22.14,21.99,16,6,16,0.00
2014-10-2,73,63,58,66,60,55,99,90,71,22.42,22.11,22,3,22,0.11
2014-10-3,62,50,42,61,45,32,99,84,65,22.43,22.24,25,10,25,0.18
2014-10-4,48,42,36,42,37,32,99,82,66,22.39,22.30,24,8,24,0.04
2014-10-5,55,44,32,38,33,29,93,68,40,22.41,22.31,17,5,17,0.00
2014-10-6,61,48,33,43,34,23,99,64,25,22.48,22.40,18,5,18,0.00
2014-10-7,67,54,43,45,40,34,89,62,33,22.48,22.16,18,5,18,0.00
2014-10-8,67,49,35,41,34,29,99,63,28,22.16,21.96,31,5,31,0.02
2014-10-9,64,46,32,38,32,29,94,64,29,21.95,21.81,14,3,14,0.02
2014-10-10,68,47,30,45,32,21,99,64,21,21.84,21.75,11,2,11,0.00
2014-10-11,66,45,29,47,33,29,99,70,27,21.87,21.72,16,2,16,0.00
2014-10-12,62,47,28,49,37,26,99,73,39,22.12,21.87,22,4,22,0.02
2014-10-13,59,54,49,58,53,49,99,97,90,22.43,22.12,21,4,21,0.51
2014-10-14,54,53,50,53,51,47,99,93,81,22.48,22.21,40,13,40,1.10
2014-10-15,57,52,49,52,49,47,99,91,81,22.23,22.09,21,9,21,0.01
2014-10-16,72,56,48,52,49,44,99,81,41,22.44,22.11,14,3,14,0.00
2014-10-17,56,51,46,51,47,42,99,86,70,22.47,22.06,23,7,23,0.00
2014-10-18,58,45,33,44,36,30,95,74,36,22.07,21.80,21,7,21,0.01
2014-10-19,60,39,28,44,35,27,99,87,53,22.09,21.83,21,4,21,0.00
2014-10-20,61,59,58,44,43,43,59,55,52,22.09,22.08,17,10,17,0.00
2014-10-21,58,44,31,38,35,30,95,72,45,21.77,21.71,8,2,8,0.00
2014-10-22,61,38,26,45,32,24,99,82,41,21.76,21.63,19,3,19,51.05
2014-10-23,48,45,39,47,44,38,99,96,83,21.95,21.84,10,4,10,0.46
2014-10-24,62,51,47,55,49,47,99,94,73,22.12,21.94,11,4,11,0.01
2014-10-25,71,58,46,56,38,20,99,57,18,22.13,21.99,25,7,25,0.00
2014-10-26,75,53,35,35,29,20,80,45,15,22.20,21.96,11,3,11,0.00
2014-10-27,76,61,46,61,51,34,95,71,48,22.48,22.20,16,3,16,0.00
2014-10-28,57,49,44,57,42,34,99,77,53,22.42,22.09,29,10,29,0.00
2014-10-29,54,42,32,36,33,29,94,71,46,22.10,21.88,27,6,29,0.00
2014-10-30,53,41,30,41,35,29,99,79,56,21.95,21.87,28,4,28,0.00
2014-10-31,41,34,27,34,21,14,99,60,37,21.91,21.52,36,15,36,0.00
2014-11-1,53,33,20,29,20,14,88,61,31,21.66,21.50,11,2,11,0.00
2014-11-2,56,40,23,31,23,14,90,55,21,21.94,21.65,22,7,22,0.00
2014-11-3,58,48,37,54,35,22,97,62,41,22.20,21.94,15,4,15,0.02
2014-11-4,57,49,40,57,40,29,99,72,42,22.26,22.00,26,9,26,0.05
2014-11-5,48,41,31,41,35,27,99,79,65,22.19,21.90,11,4,11,0.01
2014-11-6,41,37,35,41,32,25,99,82,64,22.19,21.75,25,10,25,0.07
2014-11-7,44,38,34,36,28,24,95,67,50,22.29,21.79,20,7,20,0.04
2014-11-8,46,39,32,39,28,19,98,66,43,22.32,22.07,28,9,28,0.04
2014-11-9,47,38,33,35,31,24,99,77,57,22.28,22.13,18,5,18,0.01
2014-11-10,42,37,34,40,33,23,99,85,65,22.47,22.13,21,7,21,0.00
2014-11-11,35,31,22,34,27,14,99,85,65,22.35,21.85,25,10,25,0.06
2014-11-12,25,21,18,15,13,11,77,73,62,21.86,21.74,18,8,18,0.00
2014-11-16,11,11,10,1,0,-2,63,61,55,22.16,22.14,8,5,8,0.06
2014-11-17,18,11,6,6,-1,-4,74,58,43,22.23,22.11,24,9,24,0.00
2014-11-18,21,13,9,4,0,-4,66,54,39,22.14,22.00,23,10,23,0.00
2014-11-21,65,64,62,61,60,58,87,87,87,21.96,21.93,3,2,0,0.02
2014-11-22,61,61,60,60,60,60,99,98,98,22.03,22.00,2,2,0,0.09
2014-11-25,24,14,6,16,7,-1,77,73,70,21.92,21.84,0,0,0,0.00
2014-11-26,29,16,5,21,10,-2,85,74,64,21.87,21.76,0,0,0,0.00
2014-11-27,24,16,2,18,4,-7,82,62,41,21.77,21.60,0,0,0,0.00
2014-11-28,27,18,7,20,10,-2,83,70,52,22.19,21.66,0,0,0,0.00
2014-11-29,47,34,24,40,29,20,97,84,65,22.52,22.19,13,2,13,0.04
2014-11-30,36,26,12,34,15,-5,94,65,38,21.73,21.63,22,8,26,0.00
2014-12-1,18,7,-3,-5,-14,-22,53,38,21,21.45,21.35,16,6,19,0.00
2014-12-2,27,19,-2,16,7,-15,72,59,49,22.04,21.45,17,5,17,0.00
2014-12-3,35,24,12,16,7,-2,72,50,26,22.04,21.65,21,6,21,0.00
2014-12-4,34,19,9,12,5,-2,71,55,28,21.78,21.58,15,3,15,3.39
2014-12-5,38,30,19,30,23,12,89,76,69,21.86,21.67,15,2,15,3.01
2014-12-6,45,27,14,26,14,5,85,61,25,21.68,21.33,18,3,18,0.00
2014-12-7,35,25,13,23,13,5,77,62,39,21.82,21.35,19,5,19,0.00
2014-12-8,34,32,31,32,30,23,94,90,71,22.06,21.82,15,2,15,0.04
2014-12-9,40,31,21,28,23,15,89,73,54,21.84,21.57,17,3,17,0.02
2014-12-10,26,23,19,20,17,15,82,76,70,21.72,21.56,8,3,8,0.00
2014-12-11,32,23,18,23,17,13,84,78,66,21.79,21.71,17,6,17,0.00
2014-12-12,35,31,24,32,28,20,93,88,84,0.00,40.00,17,5,17,0.00
2014-12-13,43,38,34,42,37,31,99,96,89,21.98,21.94,11,3,15,0.00
2014-12-14,47,43,39,47,43,39,99,98,97,22.07,21.96,8,3,8,0.00
2014-12-15,45,44,42,44,43,41,99,98,97,22.32,22.06,11,4,11,0.13
2014-12-16,42,34,25,41,30,16,99,85,65,22.02,21.85,28,9,28,0.21
2014-12-17,25,22,18,18,12,8,76,67,62,21.86,21.71,25,8,25,0.00
2014-12-18,26,24,20,20,17,12,82,75,68,21.77,21.69,8,3,8,0.00
2014-12-19,28,24,21,21,18,15,83,76,60,21.75,21.69,11,2,11,0.00
2014-12-20,31,28,22,26,23,-14,86,81,75,21.82,21.73,9,3,9,0.00
2014-12-21,36,33,29,32,29,25,92,86,79,22.08,22.05,19,8,21,0.00
2014-12-22,38,35,33,33,30,29,94,85,74,22.37,22.33,15,5,17,0.05
2014-12-23,42,37,34,42,36,32,99,95,93,22.28,22.25,12,4,15,0.35
2014-12-24,35,34,33,34,32,30,95,93,87,22.43,22.38,15,4,15,0.01
2014-12-25,38,33,28,31,28,24,90,80,71,22.39,22.08,18,5,18,0.01
2014-12-26,54,36,26,41,30,23,93,80,49,22.11,21.97,10,2,10,0.00
2014-12-27,37,31,22,35,27,15,94,84,64,22.17,21.88,23,6,23,0.06
2014-12-28,39,24,16,19,12,6,77,60,39,21.91,21.69,17,5,17,0.00
2014-12-29,25,15,3,8,-1,-9,67,51,34,21.70,21.41,17,7,17,0.00
2014-12-30,16,5,-2,-8,-17,-24,59,37,20,21.44,21.31,18,6,18,0.00
2014-12-31,19,8,-4,-2,-11,-17,53,41,22,22.01,21.43,29,10,29,0.00
2015-1-1,31,20,12,15,6,-2,72,56,45,22.14,21.89,19,8,19,0.00
2015-1-2,36,22,8,14,6,-4,69,51,21,21.89,21.71,10,2,10,0.00